sensor_id;sensor_type;location;lat;lon;timestamp;pressure;altitude;pressure_sealevel;temperature;humidity
8298;BME280;4187;42.778;23.242;2023-06-22T00:02:16;95691.13;;;17.76;100.00
8298;BME280;4187;42.778;23.242;2023-06-22T00:04:43;95705.50;;;17.75;100.00
8298;BME280;4187;42.778;23.242;2023-06-22T00:07:10;95697.00;;;17.72;100.00
8298;BME280;4187;42.778;23.242;2023-06-22T00:09:37;95696.16;;;17.71;100.00
8298;BME280;4187;42.778;23.242;2023-06-22T00:12:06;95696.72;;;17.67;100.00
8298;BME280;4187;42.778;23.242;2023-06-22T00:14:33;95691.25;;;17.60;100.00
8298;BME280;4187;42.778;23.242;2023-06-22T00:17:00;95684.91;;;17.61;100.00
8298;BME280;4187;42.778;23.242;2023-06-22T00:19:27;95680.06;;;17.65;100.00
8298;BME280;4187;42.778;23.242;2023-06-22T00:21:54;95620.06;;;17.30;100.00
8298;BME280;4187;42.778;23.242;2023-06-22T00:24:25;95635.28;;;17.44;100.00
8298;BME280;4187;42.778;23.242;2023-06-22T00:26:52;95642.41;;;17.60;100.00
8298;BME280;4187;42.778;23.242;2023-06-22T00:29:20;95673.28;;;17.77;100.00
8298;BME280;4187;42.778;23.242;2023-06-22T00:31:47;95681.34;;;17.91;100.00
8298;BME280;4187;42.778;23.242;2023-06-22T00:34:14;95664.34;;;17.84;100.00
8298;BME280;4187;42.778;23.242;2023-06-22T00:36:41;95679.31;;;17.93;100.00
8298;BME280;4187;42.778;23.242;2023-06-22T00:39:08;95677.13;;;17.97;100.00
8298;BME280;4187;42.778;23.242;2023-06-22T00:41:35;95672.91;;;18.03;100.00
8298;BME280;4187;42.778;23.242;2023-06-22T00:44:02;95619.88;;;17.77;100.00
8298;BME280;4187;42.778;23.242;2023-06-22T00:46:30;95674.66;;;18.10;100.00
8298;BME280;4187;42.778;23.242;2023-06-22T00:48:57;95670.88;;;18.05;100.00
8298;BME280;4187;42.778;23.242;2023-06-22T00:51:25;95674.19;;;18.07;100.00
8298;BME280;4187;42.778;23.242;2023-06-22T00:53:52;95680.72;;;18.04;100.00
8298;BME280;4187;42.778;23.242;2023-06-22T00:56:19;95685.97;;;17.98;100.00
8298;BME280;4187;42.778;23.242;2023-06-22T00:58:50;95694.63;;;18.00;100.00
8298;BME280;4187;42.778;23.242;2023-06-22T01:01:19;95697.75;;;18.03;100.00
8298;BME280;4187;42.778;23.242;2023-06-22T01:03:51;95693.22;;;17.89;100.00
8298;BME280;4187;42.778;23.242;2023-06-22T01:06:24;95694.13;;;17.96;100.00
8298;BME280;4187;42.778;23.242;2023-06-22T01:08:59;95693.78;;;17.99;100.00
8298;BME280;4187;42.778;23.242;2023-06-22T01:11:32;95683.28;;;17.98;100.00
8298;BME280;4187;42.778;23.242;2023-06-22T01:14:06;95691.94;;;18.00;100.00
8298;BME280;4187;42.778;23.242;2023-06-22T01:16:35;95676.16;;;17.90;100.00
8298;BME280;4187;42.778;23.242;2023-06-22T01:19:15;95691.91;;;17.85;100.00
8298;BME280;4187;42.778;23.242;2023-06-22T01:21:49;95689.56;;;17.82;100.00
8298;BME280;4187;42.778;23.242;2023-06-22T01:24:22;95698.44;;;17.82;100.00
8298;BME280;4187;42.778;23.242;2023-06-22T01:26:59;95700.16;;;17.75;100.00
8298;BME280;4187;42.778;23.242;2023-06-22T01:29:29;95706.00;;;17.71;100.00
8298;BME280;4187;42.778;23.242;2023-06-22T01:31:59;95702.06;;;17.67;100.00
8298;BME280;4187;42.778;23.242;2023-06-22T01:34:27;95708.03;;;17.69;100.00
8298;BME280;4187;42.778;23.242;2023-06-22T01:36:56;95709.13;;;17.60;100.00
8298;BME280;4187;42.778;23.242;2023-06-22T01:39:24;95711.47;;;17.47;100.00
8298;BME280;4187;42.778;23.242;2023-06-22T01:41:53;95699.53;;;17.43;100.00
8298;BME280;4187;42.778;23.242;2023-06-22T01:44:20;95698.69;;;17.42;100.00
8298;BME280;4187;42.778;23.242;2023-06-22T01:46:50;95701.53;;;17.41;100.00
8298;BME280;4187;42.778;23.242;2023-06-22T01:49:17;95711.88;;;17.35;100.00
8298;BME280;4187;42.778;23.242;2023-06-22T01:51:44;95708.50;;;17.19;100.00
8298;BME280;4187;42.778;23.242;2023-06-22T01:54:11;95728.78;;;17.28;100.00
8298;BME280;4187;42.778;23.242;2023-06-22T01:56:38;95730.13;;;17.24;100.00
8298;BME280;4187;42.778;23.242;2023-06-22T01:59:11;95718.53;;;17.09;100.00
8298;BME280;4187;42.778;23.242;2023-06-22T02:01:43;95726.19;;;17.12;100.00
8298;BME280;4187;42.778;23.242;2023-06-22T02:04:19;95729.84;;;17.19;100.00
8298;BME280;4187;42.778;23.242;2023-06-22T02:06:47;95735.97;;;17.19;100.00
8298;BME280;4187;42.778;23.242;2023-06-22T02:09:17;95729.88;;;17.11;100.00
8298;BME280;4187;42.778;23.242;2023-06-22T02:11:47;95728.69;;;17.13;100.00
8298;BME280;4187;42.778;23.242;2023-06-22T02:14:17;95729.09;;;16.94;100.00
8298;BME280;4187;42.778;23.242;2023-06-22T02:16:45;95719.34;;;16.79;100.00
8298;BME280;4187;42.778;23.242;2023-06-22T02:19:14;95721.66;;;16.73;100.00
8298;BME280;4187;42.778;23.242;2023-06-22T02:21:41;95723.72;;;16.55;100.00
8298;BME280;4187;42.778;23.242;2023-06-22T02:24:08;95728.38;;;16.45;100.00
8298;BME280;4187;42.778;23.242;2023-06-22T02:26:35;95725.41;;;16.40;100.00
8298;BME280;4187;42.778;23.242;2023-06-22T02:29:03;95709.09;;;16.35;100.00
8298;BME280;4187;42.778;23.242;2023-06-22T02:31:30;95713.94;;;16.32;100.00
8298;BME280;4187;42.778;23.242;2023-06-22T02:33:58;95708.94;;;16.29;100.00
8298;BME280;4187;42.778;23.242;2023-06-22T02:36:26;95720.75;;;16.26;100.00
8298;BME280;4187;42.778;23.242;2023-06-22T02:38:56;95710.63;;;16.30;100.00
8298;BME280;4187;42.778;23.242;2023-06-22T02:41:24;95700.44;;;16.25;100.00
8298;BME280;4187;42.778;23.242;2023-06-22T02:43:51;95709.25;;;16.42;100.00
8298;BME280;4187;42.778;23.242;2023-06-22T02:46:18;95716.41;;;16.41;100.00
8298;BME280;4187;42.778;23.242;2023-06-22T02:48:45;95713.25;;;16.38;100.00
8298;BME280;4187;42.778;23.242;2023-06-22T02:51:12;95715.75;;;16.39;100.00
8298;BME280;4187;42.778;23.242;2023-06-22T02:53:41;95715.09;;;16.37;100.00
8298;BME280;4187;42.778;23.242;2023-06-22T02:56:10;95720.75;;;16.34;100.00
8298;BME280;4187;42.778;23.242;2023-06-22T02:58:38;95699.66;;;16.17;100.00
8298;BME280;4187;42.778;23.242;2023-06-22T03:01:05;95714.06;;;16.30;100.00
8298;BME280;4187;42.778;23.242;2023-06-22T03:03:32;95715.91;;;16.38;100.00
8298;BME280;4187;42.778;23.242;2023-06-22T03:05:59;95723.91;;;16.46;100.00
8298;BME280;4187;42.778;23.242;2023-06-22T03:08:27;95724.56;;;16.40;100.00
8298;BME280;4187;42.778;23.242;2023-06-22T03:10:55;95727.72;;;16.43;100.00
8298;BME280;4187;42.778;23.242;2023-06-22T03:13:23;95728.72;;;16.42;100.00
8298;BME280;4187;42.778;23.242;2023-06-22T03:15:50;95734.72;;;16.44;100.00
8298;BME280;4187;42.778;23.242;2023-06-22T03:18:19;95745.69;;;16.49;100.00
8298;BME280;4187;42.778;23.242;2023-06-22T03:20:47;95751.69;;;16.51;100.00
8298;BME280;4187;42.778;23.242;2023-06-22T03:23:14;95731.22;;;16.44;100.00
8298;BME280;4187;42.778;23.242;2023-06-22T03:25:41;95745.69;;;16.49;100.00
8298;BME280;4187;42.778;23.242;2023-06-22T03:28:11;95738.38;;;16.51;100.00
8298;BME280;4187;42.778;23.242;2023-06-22T03:30:38;95742.88;;;16.59;100.00
8298;BME280;4187;42.778;23.242;2023-06-22T03:33:05;95751.47;;;17.24;100.00
8298;BME280;4187;42.778;23.242;2023-06-22T03:35:31;95758.41;;;17.33;100.00
8298;BME280;4187;42.778;23.242;2023-06-22T03:37:58;95768.16;;;17.18;100.00
8298;BME280;4187;42.778;23.242;2023-06-22T03:40:25;95759.88;;;17.13;100.00
8298;BME280;4187;42.778;23.242;2023-06-22T03:42:52;95770.22;;;17.08;100.00
8298;BME280;4187;42.778;23.242;2023-06-22T03:45:20;95773.03;;;17.06;100.00
8298;BME280;4187;42.778;23.242;2023-06-22T03:47:47;95778.56;;;17.05;100.00
8298;BME280;4187;42.778;23.242;2023-06-22T03:50:14;95784.72;;;17.05;100.00
8298;BME280;4187;42.778;23.242;2023-06-22T03:52:41;95777.41;;;16.99;100.00
8298;BME280;4187;42.778;23.242;2023-06-22T03:55:08;95771.13;;;16.92;100.00
8298;BME280;4187;42.778;23.242;2023-06-22T03:57:35;95768.44;;;16.92;100.00
8298;BME280;4187;42.778;23.242;2023-06-22T04:00:03;95777.59;;;16.90;100.00
8298;BME280;4187;42.778;23.242;2023-06-22T04:02:32;95749.81;;;16.84;100.00
8298;BME280;4187;42.778;23.242;2023-06-22T04:04:59;95762.13;;;16.85;100.00
8298;BME280;4187;42.778;23.242;2023-06-22T04:07:26;95746.31;;;16.84;100.00
8298;BME280;4187;42.778;23.242;2023-06-22T04:09:53;95759.63;;;16.92;100.00
8298;BME280;4187;42.778;23.242;2023-06-22T04:12:20;95761.41;;;16.99;100.00
8298;BME280;4187;42.778;23.242;2023-06-22T04:14:46;95756.22;;;16.98;100.00
8298;BME280;4187;42.778;23.242;2023-06-22T04:17:13;95755.75;;;17.02;100.00
8298;BME280;4187;42.778;23.242;2023-06-22T04:19:42;95725.28;;;16.89;100.00
8298;BME280;4187;42.778;23.242;2023-06-22T04:22:09;95753.53;;;17.06;100.00
8298;BME280;4187;42.778;23.242;2023-06-22T04:24:36;95748.66;;;17.17;100.00
8298;BME280;4187;42.778;23.242;2023-06-22T04:27:03;95758.47;;;17.25;100.00
8298;BME280;4187;42.778;23.242;2023-06-22T04:29:30;95747.28;;;17.29;100.00
8298;BME280;4187;42.778;23.242;2023-06-22T04:31:57;95735.28;;;17.25;100.00
8298;BME280;4187;42.778;23.242;2023-06-22T04:34:28;95757.03;;;17.53;100.00
8298;BME280;4187;42.778;23.242;2023-06-22T04:36:57;95760.47;;;17.62;100.00
8298;BME280;4187;42.778;23.242;2023-06-22T04:39:24;95763.09;;;17.70;100.00
8298;BME280;4187;42.778;23.242;2023-06-22T04:41:52;95769.88;;;17.80;100.00
8298;BME280;4187;42.778;23.242;2023-06-22T04:44:20;95770.44;;;17.90;100.00
8298;BME280;4187;42.778;23.242;2023-06-22T04:46:50;95768.69;;;18.06;100.00
8298;BME280;4187;42.778;23.242;2023-06-22T04:49:20;95761.13;;;18.09;100.00
8298;BME280;4187;42.778;23.242;2023-06-22T04:51:47;95771.88;;;18.24;100.00
8298;BME280;4187;42.778;23.242;2023-06-22T04:54:18;95774.13;;;18.35;100.00
8298;BME280;4187;42.778;23.242;2023-06-22T04:56:45;95758.84;;;18.43;100.00
8298;BME280;4187;42.778;23.242;2023-06-22T04:59:12;95769.09;;;18.55;100.00
8298;BME280;4187;42.778;23.242;2023-06-22T05:01:39;95711.63;;;18.36;100.00
8298;BME280;4187;42.778;23.242;2023-06-22T05:04:06;95769.97;;;18.84;100.00
8298;BME280;4187;42.778;23.242;2023-06-22T05:06:34;95757.34;;;18.93;100.00
8298;BME280;4187;42.778;23.242;2023-06-22T05:09:01;95773.97;;;19.03;100.00
8298;BME280;4187;42.778;23.242;2023-06-22T05:11:30;95765.28;;;19.16;100.00
8298;BME280;4187;42.778;23.242;2023-06-22T05:13:56;95767.94;;;19.30;100.00
8298;BME280;4187;42.778;23.242;2023-06-22T05:16:24;95778.19;;;19.41;100.00
8298;BME280;4187;42.778;23.242;2023-06-22T05:18:54;95768.41;;;19.48;100.00
8298;BME280;4187;42.778;23.242;2023-06-22T05:21:22;95786.56;;;19.67;100.00
8298;BME280;4187;42.778;23.242;2023-06-22T05:23:50;95780.31;;;19.82;100.00
8298;BME280;4187;42.778;23.242;2023-06-22T05:26:17;95784.38;;;19.92;100.00
8298;BME280;4187;42.778;23.242;2023-06-22T05:28:46;95793.56;;;20.04;100.00
8298;BME280;4187;42.778;23.242;2023-06-22T05:31:13;95789.75;;;20.13;100.00
8298;BME280;4187;42.778;23.242;2023-06-22T05:33:41;95789.63;;;20.21;100.00
8298;BME280;4187;42.778;23.242;2023-06-22T05:36:08;95793.16;;;20.43;100.00
8298;BME280;4187;42.778;23.242;2023-06-22T05:38:35;95797.16;;;20.54;100.00
8298;BME280;4187;42.778;23.242;2023-06-22T05:41:02;95800.53;;;20.62;100.00
8298;BME280;4187;42.778;23.242;2023-06-22T05:43:30;95808.94;;;20.80;100.00
8298;BME280;4187;42.778;23.242;2023-06-22T05:46:01;95802.13;;;20.84;100.00
8298;BME280;4187;42.778;23.242;2023-06-22T05:48:28;95805.13;;;20.96;100.00
8298;BME280;4187;42.778;23.242;2023-06-22T05:50:54;95799.28;;;21.14;100.00
8298;BME280;4187;42.778;23.242;2023-06-22T05:53:21;95803.50;;;21.29;100.00
8298;BME280;4187;42.778;23.242;2023-06-22T05:55:49;95806.25;;;21.42;100.00
8298;BME280;4187;42.778;23.242;2023-06-22T05:58:16;95809.84;;;21.56;100.00
8298;BME280;4187;42.778;23.242;2023-06-22T06:00:43;95794.97;;;21.60;100.00
8298;BME280;4187;42.778;23.242;2023-06-22T06:03:11;95809.28;;;21.74;100.00
8298;BME280;4187;42.778;23.242;2023-06-22T06:05:38;95801.69;;;21.84;100.00
8298;BME280;4187;42.778;23.242;2023-06-22T06:08:06;95812.13;;;22.00;100.00
8298;BME280;4187;42.778;23.242;2023-06-22T06:10:33;95812.13;;;22.07;100.00
8298;BME280;4187;42.778;23.242;2023-06-22T06:13:00;95815.91;;;22.19;100.00
8298;BME280;4187;42.778;23.242;2023-06-22T06:15:29;95804.94;;;22.27;100.00
8298;BME280;4187;42.778;23.242;2023-06-22T06:17:56;95813.03;;;22.53;100.00
8298;BME280;4187;42.778;23.242;2023-06-22T06:20:25;95815.56;;;22.74;100.00
8298;BME280;4187;42.778;23.242;2023-06-22T06:22:53;95816.41;;;22.88;100.00
8298;BME280;4187;42.778;23.242;2023-06-22T06:25:20;95821.34;;;23.04;100.00
8298;BME280;4187;42.778;23.242;2023-06-22T06:27:49;95802.06;;;23.20;100.00
8298;BME280;4187;42.778;23.242;2023-06-22T06:30:17;95814.47;;;23.47;100.00
8298;BME280;4187;42.778;23.242;2023-06-22T06:32:46;95813.22;;;23.56;100.00
8298;BME280;4187;42.778;23.242;2023-06-22T06:35:14;95815.06;;;23.62;100.00
8298;BME280;4187;42.778;23.242;2023-06-22T06:37:44;95815.63;;;23.71;100.00
8298;BME280;4187;42.778;23.242;2023-06-22T06:40:12;95819.75;;;23.87;100.00
8298;BME280;4187;42.778;23.242;2023-06-22T06:42:39;95809.56;;;23.95;100.00
8298;BME280;4187;42.778;23.242;2023-06-22T06:45:07;95800.28;;;23.78;100.00
8298;BME280;4187;42.778;23.242;2023-06-22T06:47:35;95802.25;;;24.02;100.00
8298;BME280;4187;42.778;23.242;2023-06-22T06:50:02;95792.16;;;24.29;100.00
8298;BME280;4187;42.778;23.242;2023-06-22T06:52:28;95800.69;;;24.57;100.00
8298;BME280;4187;42.778;23.242;2023-06-22T06:54:59;95803.66;;;24.80;100.00
8298;BME280;4187;42.778;23.242;2023-06-22T06:57:26;95798.53;;;24.97;100.00
8298;BME280;4187;42.778;23.242;2023-06-22T06:59:54;95796.38;;;25.06;100.00
8298;BME280;4187;42.778;23.242;2023-06-22T07:02:21;95799.69;;;25.08;100.00
8298;BME280;4187;42.778;23.242;2023-06-22T07:04:47;95807.59;;;25.27;100.00
8298;BME280;4187;42.778;23.242;2023-06-22T07:07:15;95812.81;;;25.47;100.00
8298;BME280;4187;42.778;23.242;2023-06-22T07:09:42;95805.94;;;25.69;100.00
8298;BME280;4187;42.778;23.242;2023-06-22T07:12:10;95809.69;;;25.86;100.00
8298;BME280;4187;42.778;23.242;2023-06-22T07:14:37;95811.06;;;26.07;100.00
8298;BME280;4187;42.778;23.242;2023-06-22T07:17:04;95802.31;;;26.41;100.00
8298;BME280;4187;42.778;23.242;2023-06-22T07:19:32;95807.09;;;26.57;100.00
8298;BME280;4187;42.778;23.242;2023-06-22T07:21:59;95815.69;;;26.66;100.00
8298;BME280;4187;42.778;23.242;2023-06-22T07:24:26;95817.59;;;26.77;100.00
8298;BME280;4187;42.778;23.242;2023-06-22T07:26:53;95816.25;;;26.86;98.59
8298;BME280;4187;42.778;23.242;2023-06-22T07:29:21;95820.72;;;26.92;99.83
8298;BME280;4187;42.778;23.242;2023-06-22T07:31:49;95759.78;;;26.71;100.00
8298;BME280;4187;42.778;23.242;2023-06-22T07:34:16;95819.25;;;27.19;100.00
8298;BME280;4187;42.778;23.242;2023-06-22T07:36:43;95812.16;;;27.42;100.00
8298;BME280;4187;42.778;23.242;2023-06-22T07:39:11;95821.00;;;27.60;99.65
8298;BME280;4187;42.778;23.242;2023-06-22T07:41:39;95813.22;;;27.64;97.84
8298;BME280;4187;42.778;23.242;2023-06-22T07:44:07;95804.63;;;27.67;96.57
8298;BME280;4187;42.778;23.242;2023-06-22T07:46:35;95815.66;;;27.88;99.92
8298;BME280;4187;42.778;23.242;2023-06-22T07:49:02;95823.06;;;27.93;97.34
8298;BME280;4187;42.778;23.242;2023-06-22T07:51:29;95809.28;;;27.95;98.44
8298;BME280;4187;42.778;23.242;2023-06-22T07:53:56;95816.25;;;28.02;99.48
8298;BME280;4187;42.778;23.242;2023-06-22T07:56:22;95803.47;;;28.14;100.00
8298;BME280;4187;42.778;23.242;2023-06-22T07:58:49;95795.84;;;28.28;97.31
8298;BME280;4187;42.778;23.242;2023-06-22T08:01:16;95800.78;;;28.31;98.51
8298;BME280;4187;42.778;23.242;2023-06-22T08:03:47;95796.91;;;28.38;98.03
8298;BME280;4187;42.778;23.242;2023-06-22T08:06:14;95794.53;;;28.59;95.58
8298;BME280;4187;42.778;23.242;2023-06-22T08:08:41;95788.09;;;28.76;97.72
8298;BME280;4187;42.778;23.242;2023-06-22T08:11:09;95793.88;;;28.96;96.35
8298;BME280;4187;42.778;23.242;2023-06-22T08:13:36;95793.88;;;29.13;95.95
8298;BME280;4187;42.778;23.242;2023-06-22T08:16:03;95791.00;;;29.20;94.10
8298;BME280;4187;42.778;23.242;2023-06-22T08:18:29;95787.06;;;29.27;97.76
8298;BME280;4187;42.778;23.242;2023-06-22T08:20:58;95786.94;;;29.39;98.49
8298;BME280;4187;42.778;23.242;2023-06-22T08:23:25;95786.22;;;29.43;95.50
8298;BME280;4187;42.778;23.242;2023-06-22T08:25:51;95787.28;;;29.42;96.59
8298;BME280;4187;42.778;23.242;2023-06-22T08:28:18;95797.09;;;29.43;95.53
8298;BME280;4187;42.778;23.242;2023-06-22T08:30:45;95765.81;;;29.24;93.04
8298;BME280;4187;42.778;23.242;2023-06-22T08:33:12;95796.31;;;29.48;94.33
8298;BME280;4187;42.778;23.242;2023-06-22T08:35:39;95789.50;;;29.45;92.63
8298;BME280;4187;42.778;23.242;2023-06-22T08:38:07;95781.91;;;29.31;94.05
8298;BME280;4187;42.778;23.242;2023-06-22T08:40:34;95747.31;;;29.10;94.90
8298;BME280;4187;42.778;23.242;2023-06-22T08:43:01;95771.53;;;29.44;94.13
8298;BME280;4187;42.778;23.242;2023-06-22T08:45:27;95778.31;;;29.63;92.36
8298;BME280;4187;42.778;23.242;2023-06-22T08:47:54;95772.63;;;29.82;92.65
8298;BME280;4187;42.778;23.242;2023-06-22T08:50:21;95767.75;;;29.84;92.89
8298;BME280;4187;42.778;23.242;2023-06-22T08:52:49;95762.88;;;29.69;90.23
8298;BME280;4187;42.778;23.242;2023-06-22T08:55:18;95754.22;;;29.72;91.70
8298;BME280;4187;42.778;23.242;2023-06-22T08:57:45;95751.66;;;29.82;87.68
8298;BME280;4187;42.778;23.242;2023-06-22T09:00:12;95756.03;;;30.05;86.40
8298;BME280;4187;42.778;23.242;2023-06-22T09:02:43;95746.22;;;30.31;93.66
8298;BME280;4187;42.778;23.242;2023-06-22T09:05:10;95734.66;;;30.40;90.51
8298;BME280;4187;42.778;23.242;2023-06-22T09:07:36;95742.38;;;30.48;88.27
8298;BME280;4187;42.778;23.242;2023-06-22T09:10:04;95750.94;;;30.62;86.27
8298;BME280;4187;42.778;23.242;2023-06-22T09:12:33;95749.56;;;30.59;83.96
8298;BME280;4187;42.778;23.242;2023-06-22T09:15:00;95750.78;;;30.73;86.40
8298;BME280;4187;42.778;23.242;2023-06-22T09:17:28;95745.72;;;30.87;85.56
8298;BME280;4187;42.778;23.242;2023-06-22T09:19:55;95751.59;;;31.01;84.37
8298;BME280;4187;42.778;23.242;2023-06-22T09:22:22;95754.34;;;31.06;85.38
8298;BME280;4187;42.778;23.242;2023-06-22T09:24:48;95753.00;;;31.08;85.57
8298;BME280;4187;42.778;23.242;2023-06-22T09:27:18;95755.00;;;31.23;84.15
8298;BME280;4187;42.778;23.242;2023-06-22T09:29:47;95754.28;;;31.37;85.61
8298;BME280;4187;42.778;23.242;2023-06-22T09:32:13;95765.09;;;31.59;84.30
8298;BME280;4187;42.778;23.242;2023-06-22T09:34:40;95763.53;;;31.73;82.09
8298;BME280;4187;42.778;23.242;2023-06-22T09:37:07;95760.03;;;31.88;80.19
8298;BME280;4187;42.778;23.242;2023-06-22T09:39:34;95750.78;;;31.94;79.54
8298;BME280;4187;42.778;23.242;2023-06-22T09:42:12;95744.63;;;32.09;81.15
8298;BME280;4187;42.778;23.242;2023-06-22T09:44:40;95737.81;;;32.16;82.39
8298;BME280;4187;42.778;23.242;2023-06-22T09:47:09;95733.72;;;32.19;81.46
8298;BME280;4187;42.778;23.242;2023-06-22T09:49:36;95734.53;;;32.24;79.38
8298;BME280;4187;42.778;23.242;2023-06-22T09:52:04;95737.28;;;32.19;76.94
8298;BME280;4187;42.778;23.242;2023-06-22T09:54:30;95732.88;;;32.13;77.37
8298;BME280;4187;42.778;23.242;2023-06-22T09:56:57;95731.50;;;32.16;77.13
8298;BME280;4187;42.778;23.242;2023-06-22T09:59:24;95731.75;;;32.04;76.05
8298;BME280;4187;42.778;23.242;2023-06-22T10:01:51;95738.56;;;32.07;78.26
8298;BME280;4187;42.778;23.242;2023-06-22T10:04:19;95734.69;;;31.92;76.32
8298;BME280;4187;42.778;23.242;2023-06-22T10:06:46;95726.22;;;31.94;73.95
8298;BME280;4187;42.778;23.242;2023-06-22T10:09:13;95737.34;;;31.77;76.28
8298;BME280;4187;42.778;23.242;2023-06-22T10:11:40;95726.69;;;31.71;79.12
8298;BME280;4187;42.778;23.242;2023-06-22T10:14:06;95727.28;;;31.88;81.83
8298;BME280;4187;42.778;23.242;2023-06-22T10:16:33;95714.81;;;32.02;78.97
8298;BME280;4187;42.778;23.242;2023-06-22T10:19:01;95704.69;;;31.98;77.00
8298;BME280;4187;42.778;23.242;2023-06-22T10:21:29;95721.09;;;32.08;77.06
8298;BME280;4187;42.778;23.242;2023-06-22T10:23:57;95726.34;;;32.14;74.76
8298;BME280;4187;42.778;23.242;2023-06-22T10:26:24;95720.88;;;32.24;75.42
8298;BME280;4187;42.778;23.242;2023-06-22T10:28:54;95708.63;;;32.42;77.62
8298;BME280;4187;42.778;23.242;2023-06-22T10:31:21;95703.22;;;32.72;80.09
8298;BME280;4187;42.778;23.242;2023-06-22T10:33:48;95717.44;;;32.89;73.27
8298;BME280;4187;42.778;23.242;2023-06-22T10:36:15;95706.75;;;32.88;73.76
8298;BME280;4187;42.778;23.242;2023-06-22T10:38:44;95708.13;;;32.80;72.91
8298;BME280;4187;42.778;23.242;2023-06-22T10:41:11;95701.03;;;32.94;77.33
8298;BME280;4187;42.778;23.242;2023-06-22T10:43:37;95693.09;;;33.03;76.07
8298;BME280;4187;42.778;23.242;2023-06-22T10:46:04;95700.22;;;33.14;74.63
8298;BME280;4187;42.778;23.242;2023-06-22T10:48:31;95707.88;;;33.07;71.11
8298;BME280;4187;42.778;23.242;2023-06-22T10:50:58;95701.56;;;32.86;72.30
8298;BME280;4187;42.778;23.242;2023-06-22T10:53:25;95684.09;;;32.87;75.41
8298;BME280;4187;42.778;23.242;2023-06-22T10:55:53;95699.66;;;33.22;73.39
8298;BME280;4187;42.778;23.242;2023-06-22T10:58:20;95691.75;;;33.05;74.68
8298;BME280;4187;42.778;23.242;2023-06-22T11:00:47;95681.59;;;33.26;76.42
8298;BME280;4187;42.778;23.242;2023-06-22T11:03:14;95692.75;;;33.55;76.85
8298;BME280;4187;42.778;23.242;2023-06-22T11:05:41;95687.75;;;33.72;75.02
8298;BME280;4187;42.778;23.242;2023-06-22T11:08:08;95692.59;;;33.95;74.45
8298;BME280;4187;42.778;23.242;2023-06-22T11:10:34;95689.03;;;33.95;67.96
8298;BME280;4187;42.778;23.242;2023-06-22T11:13:03;95662.09;;;33.58;67.54
8298;BME280;4187;42.778;23.242;2023-06-22T11:15:31;95685.31;;;33.55;70.33
8298;BME280;4187;42.778;23.242;2023-06-22T11:17:58;95673.41;;;33.21;72.33
8298;BME280;4187;42.778;23.242;2023-06-22T11:20:24;95673.13;;;32.97;70.37
8298;BME280;4187;42.778;23.242;2023-06-22T11:22:51;95676.97;;;32.81;71.24
8298;BME280;4187;42.778;23.242;2023-06-22T11:25:18;95675.59;;;32.53;73.11
8298;BME280;4187;42.778;23.242;2023-06-22T11:27:47;95672.81;;;32.23;75.25
8298;BME280;4187;42.778;23.242;2023-06-22T11:30:16;95625.69;;;31.66;74.92
8298;BME280;4187;42.778;23.242;2023-06-22T11:32:43;95683.88;;;31.81;76.27
8298;BME280;4187;42.778;23.242;2023-06-22T11:35:10;95668.00;;;31.68;79.41
8298;BME280;4187;42.778;23.242;2023-06-22T11:37:37;95660.00;;;31.52;74.80
8298;BME280;4187;42.778;23.242;2023-06-22T11:40:05;95669.81;;;31.53;74.71
8298;BME280;4187;42.778;23.242;2023-06-22T11:42:34;95667.16;;;31.63;76.40
8298;BME280;4187;42.778;23.242;2023-06-22T11:45:01;95657.09;;;31.68;78.67
8298;BME280;4187;42.778;23.242;2023-06-22T11:47:31;95656.28;;;31.83;78.57
8298;BME280;4187;42.778;23.242;2023-06-22T11:49:58;95656.59;;;31.96;76.72
8298;BME280;4187;42.778;23.242;2023-06-22T11:52:25;95660.19;;;32.02;76.10
8298;BME280;4187;42.778;23.242;2023-06-22T11:54:54;95665.44;;;32.14;77.82
8298;BME280;4187;42.778;23.242;2023-06-22T11:57:21;95671.13;;;32.12;80.67
8298;BME280;4187;42.778;23.242;2023-06-22T11:59:47;95673.88;;;32.12;81.03
8298;BME280;4187;42.778;23.242;2023-06-22T12:02:14;95673.59;;;32.09;85.27
8298;BME280;4187;42.778;23.242;2023-06-22T12:04:42;95675.75;;;32.02;92.74
8298;BME280;4187;42.778;23.242;2023-06-22T12:07:09;95681.41;;;31.85;96.97
8298;BME280;4187;42.778;23.242;2023-06-22T12:09:36;95698.75;;;31.54;96.17
8298;BME280;4187;42.778;23.242;2023-06-22T12:12:05;95705.91;;;30.28;100.00
8298;BME280;4187;42.778;23.242;2023-06-22T12:14:32;95711.22;;;28.76;100.00
8298;BME280;4187;42.778;23.242;2023-06-22T12:16:59;95721.78;;;27.01;100.00
8298;BME280;4187;42.778;23.242;2023-06-22T12:19:26;95711.31;;;25.69;100.00
8298;BME280;4187;42.778;23.242;2023-06-22T12:21:54;95691.56;;;24.96;100.00
8298;BME280;4187;42.778;23.242;2023-06-22T12:24:21;95678.59;;;24.62;100.00
8298;BME280;4187;42.778;23.242;2023-06-22T12:26:48;95673.16;;;24.44;100.00
8298;BME280;4187;42.778;23.242;2023-06-22T12:29:15;95675.91;;;24.06;100.00
8298;BME280;4187;42.778;23.242;2023-06-22T12:31:42;95662.94;;;23.58;100.00
8298;BME280;4187;42.778;23.242;2023-06-22T12:34:09;95654.97;;;23.32;100.00
8298;BME280;4187;42.778;23.242;2023-06-22T12:36:36;95659.28;;;23.33;100.00
8298;BME280;4187;42.778;23.242;2023-06-22T12:39:04;95655.59;;;23.41;100.00
8298;BME280;4187;42.778;23.242;2023-06-22T12:41:31;95665.09;;;23.37;100.00
8298;BME280;4187;42.778;23.242;2023-06-22T12:43:58;95654.78;;;23.20;100.00
8298;BME280;4187;42.778;23.242;2023-06-22T12:46:28;95658.50;;;23.26;100.00
8298;BME280;4187;42.778;23.242;2023-06-22T12:48:56;95653.00;;;23.52;100.00
8298;BME280;4187;42.778;23.242;2023-06-22T12:51:23;95646.22;;;23.81;100.00
8298;BME280;4187;42.778;23.242;2023-06-22T12:53:50;95646.03;;;24.14;100.00
8298;BME280;4187;42.778;23.242;2023-06-22T12:56:18;95649.88;;;24.49;100.00
8298;BME280;4187;42.778;23.242;2023-06-22T12:58:45;95637.22;;;24.68;100.00
8298;BME280;4187;42.778;23.242;2023-06-22T13:01:12;95666.22;;;24.97;100.00
8298;BME280;4187;42.778;23.242;2023-06-22T13:03:39;95671.31;;;25.05;100.00
8298;BME280;4187;42.778;23.242;2023-06-22T13:06:06;95675.53;;;25.19;100.00
8298;BME280;4187;42.778;23.242;2023-06-22T13:08:33;95677.84;;;25.34;100.00